createdAt,value
2019-01-30T00:00:27.590Z,85.20
2019-01-30T00:02:57.011Z,85.30
2019-01-30T00:05:26.344Z,85.30
2019-01-30T00:07:56.321Z,85.20
2019-01-30T00:10:25.741Z,85.00
2019-01-30T00:12:54.646Z,84.90
2019-01-30T00:15:24.119Z,84.80
2019-01-30T00:17:53.054Z,84.80
2019-01-30T00:20:22.316Z,84.70
2019-01-30T00:22:51.314Z,84.60
2019-01-30T00:25:20.367Z,84.60
2019-01-30T00:27:49.837Z,84.40
2019-01-30T00:30:18.826Z,84.60
2019-01-30T00:32:47.955Z,84.70
2019-01-30T00:35:17.111Z,84.90
2019-01-30T00:37:46.587Z,85.10
2019-01-30T00:40:15.863Z,85.20
2019-01-30T00:42:44.834Z,85.50
2019-01-30T00:45:15.862Z,85.70
2019-01-30T00:47:45.823Z,85.50
2019-01-30T00:50:15.212Z,85.50
2019-01-30T00:52:44.842Z,85.50
2019-01-30T00:55:14.791Z,85.50
2019-01-30T00:57:44.014Z,85.40
2019-01-30T01:00:16.259Z,85.40
2019-01-30T01:02:45.211Z,85.40
2019-01-30T01:05:15.884Z,85.30
2019-01-30T01:07:45.091Z,85.30
2019-01-30T01:10:15.794Z,85.30
2019-01-30T01:12:44.940Z,85.20
2019-01-30T01:15:16.724Z,84.90
2019-01-30T01:17:46.385Z,84.90
2019-01-30T01:20:15.484Z,84.90
2019-01-30T01:22:44.657Z,84.80
2019-01-30T01:25:16.567Z,84.70
2019-01-30T01:27:45.947Z,84.70
2019-01-30T01:30:25.165Z,84.50
2019-01-30T01:32:51.918Z,84.50
2019-01-30T01:35:21.046Z,84.60
2019-01-30T01:37:50.211Z,84.60
2019-01-30T01:40:19.325Z,84.70
2019-01-30T01:42:48.889Z,84.70
2019-01-30T01:45:20.407Z,84.60
2019-01-30T01:47:49.737Z,84.70
2019-01-30T01:50:20.197Z,84.60
2019-01-30T01:52:49.302Z,84.80
2019-01-30T01:55:18.476Z,84.60
2019-01-30T01:57:47.327Z,84.50
2019-01-30T02:00:19.431Z,84.50
2019-01-30T02:02:48.632Z,84.30
2019-01-30T02:05:19.867Z,84.30
2019-01-30T02:07:48.976Z,84.20
2019-01-30T02:10:20.888Z,84.20
2019-01-30T02:12:50.543Z,83.90
2019-01-30T02:15:21.737Z,83.90
2019-01-30T02:17:51.216Z,83.70
2019-01-30T02:20:25.630Z,83.70
2019-01-30T02:22:55.207Z,83.90
2019-01-30T02:25:24.191Z,83.80
2019-01-30T02:27:53.387Z,83.70
2019-01-30T02:30:24.817Z,83.80
2019-01-30T02:32:53.949Z,83.90
2019-01-30T02:35:23.257Z,83.80
2019-01-30T02:37:52.748Z,83.70
2019-01-30T02:40:22.175Z,83.60
2019-01-30T02:42:51.135Z,83.60
2019-01-30T02:45:22.138Z,83.60
2019-01-30T02:47:51.391Z,83.60
2019-01-30T02:50:20.850Z,83.60
2019-01-30T02:52:50.227Z,83.50
2019-01-30T02:55:19.640Z,83.30
2019-01-30T02:57:48.575Z,83.30
2019-01-30T03:00:30.407Z,83.10
2019-01-30T03:02:59.637Z,82.70
2019-01-30T03:05:29.167Z,82.50
2019-01-30T03:07:58.233Z,82.30
2019-01-30T03:10:27.441Z,82.10
2019-01-30T03:12:56.409Z,82.20
2019-01-30T03:15:25.531Z,82.10
2019-01-30T03:17:54.646Z,82.30
2019-01-30T03:20:25.880Z,82.20
2019-01-30T03:22:54.983Z,82.10
2019-01-30T03:25:26.244Z,81.90
2019-01-30T03:27:55.170Z,81.80
2019-01-30T03:30:26.816Z,81.80
2019-01-30T03:32:55.784Z,82.10
2019-01-30T03:35:24.877Z,81.70
2019-01-30T03:37:54.385Z,81.70
2019-01-30T03:40:23.797Z,81.60
2019-01-30T03:42:53.352Z,81.50
2019-01-30T03:45:23.108Z,81.00
2019-01-30T03:47:52.223Z,80.80
2019-01-30T03:50:21.346Z,80.90
2019-01-30T03:52:51.052Z,81.10
2019-01-30T03:55:20.351Z,81.10
2019-01-30T03:57:49.820Z,81.10
2019-01-30T04:00:35.941Z,80.80
2019-01-30T04:03:05.572Z,80.90
2019-01-30T04:05:34.653Z,80.90
2019-01-30T04:08:03.836Z,81.00
2019-01-30T04:10:33.564Z,80.80
2019-01-30T04:13:02.853Z,80.80
2019-01-30T04:15:32.285Z,80.50
2019-01-30T04:18:01.484Z,80.60
2019-01-30T04:20:30.494Z,80.50
2019-01-30T04:22:59.794Z,80.30
2019-01-30T04:25:29.078Z,80.40
2019-01-30T04:27:58.078Z,80.80
2019-01-30T04:30:27.343Z,80.30
2019-01-30T04:32:56.418Z,80.30
2019-01-30T04:35:25.517Z,79.90
2019-01-30T04:37:54.443Z,80.30
2019-01-30T04:40:24.641Z,80.00
2019-01-30T04:42:54.325Z,80.10
2019-01-30T04:45:24.939Z,80.00
2019-01-30T04:47:54.177Z,79.90
2019-01-30T04:50:23.330Z,80.10
2019-01-30T04:52:52.263Z,80.60
2019-01-30T04:55:21.690Z,80.90
2019-01-30T04:57:52.366Z,81.00
2019-01-30T05:00:23.411Z,80.40
2019-01-30T05:02:52.897Z,80.40
2019-01-30T05:05:21.913Z,80.20
2019-01-30T05:07:51.318Z,80.00
2019-01-30T05:10:20.536Z,80.10
2019-01-30T05:12:50.192Z,80.20
2019-01-30T05:15:19.896Z,80.50
2019-01-30T05:17:49.304Z,80.50
2019-01-30T05:20:19.174Z,80.50
2019-01-30T05:22:48.267Z,81.20
2019-01-30T05:25:17.390Z,81.00
2019-01-30T05:27:46.481Z,80.50
2019-01-30T05:30:27.464Z,80.50
2019-01-30T05:32:56.431Z,80.10
2019-01-30T05:35:25.646Z,80.40
2019-01-30T05:37:54.718Z,80.60
2019-01-30T05:40:24.280Z,80.30
2019-01-30T05:42:53.603Z,80.30
2019-01-30T05:45:22.853Z,80.20
2019-01-30T05:47:52.552Z,80.20
2019-01-30T05:50:21.761Z,80.40
2019-01-30T05:52:51.317Z,80.70
2019-01-30T05:55:22.215Z,80.50
2019-01-30T05:57:51.111Z,80.00
2019-01-30T06:00:31.771Z,80.20
2019-01-30T06:03:00.681Z,80.00
2019-01-30T06:05:29.843Z,80.10
2019-01-30T06:07:58.885Z,80.20
2019-01-30T06:10:28.507Z,80.30
2019-01-30T06:13:05.523Z,80.30
2019-01-30T06:15:35.043Z,80.20
2019-01-30T06:18:04.372Z,80.50
2019-01-30T06:20:34.137Z,80.60
2019-01-30T06:23:03.397Z,80.70
2019-01-30T06:25:32.576Z,81.00
2019-01-30T06:28:03.996Z,80.90
2019-01-30T06:30:33.067Z,81.10
2019-01-30T06:33:02.066Z,81.50
2019-01-30T06:35:32.549Z,82.00
2019-01-30T06:38:01.861Z,82.00
2019-01-30T06:40:33.680Z,82.20
2019-01-30T06:43:03.031Z,82.30
2019-01-30T06:45:32.614Z,82.10
2019-01-30T06:48:03.253Z,82.50
2019-01-30T06:50:32.336Z,82.60
2019-01-30T06:53:01.628Z,83.30
2019-01-30T06:55:30.820Z,84.50
2019-01-30T06:57:59.932Z,85.70
2019-01-30T07:00:29.210Z,86.20
2019-01-30T07:02:59.239Z,87.50
2019-01-30T07:05:31.189Z,88.60
2019-01-30T07:08:00.293Z,89.50
2019-01-30T07:10:48.517Z,90.30
2019-01-30T07:13:37.156Z,91.40
2019-01-30T07:16:06.456Z,91.80
2019-01-30T07:18:35.650Z,92.30
2019-01-30T07:21:06.025Z,92.60
2019-01-30T07:23:35.994Z,92.50
2019-01-30T07:26:05.070Z,92.50
2019-01-30T07:28:34.096Z,92.70
2019-01-30T07:31:03.888Z,92.70
2019-01-30T07:33:32.839Z,92.70
2019-01-30T07:36:02.321Z,92.80
2019-01-30T07:38:31.393Z,92.90
2019-01-30T07:41:00.560Z,93.00
2019-01-30T07:43:29.675Z,93.10
2019-01-30T07:45:58.901Z,93.30
2019-01-30T07:48:29.070Z,93.10
2019-01-30T07:50:58.115Z,93.40
2019-01-30T07:53:27.170Z,93.10
2019-01-30T07:55:56.078Z,93.10
2019-01-30T07:58:25.199Z,92.90
2019-01-30T08:00:54.119Z,92.70
2019-01-30T08:03:23.404Z,92.90
2019-01-30T08:05:52.270Z,92.20
2019-01-30T08:08:21.251Z,92.10
2019-01-30T08:10:50.362Z,91.80
2019-01-30T08:13:19.653Z,91.90
2019-01-30T08:15:48.612Z,91.70
2019-01-30T08:18:18.759Z,91.20
2019-01-30T08:20:48.002Z,90.80
2019-01-30T08:23:17.087Z,90.70
2019-01-30T08:25:47.041Z,90.30
2019-01-30T08:28:16.601Z,89.90
2019-01-30T08:30:45.920Z,89.40
2019-01-30T08:33:15.713Z,89.10
2019-01-30T08:35:46.522Z,88.80
2019-01-30T08:38:16.170Z,88.00
2019-01-30T08:40:45.310Z,87.70
2019-01-30T08:43:14.583Z,87.50
2019-01-30T08:45:43.744Z,87.50
2019-01-30T08:48:14.013Z,86.70
2019-01-30T08:50:43.476Z,87.10
2019-01-30T08:53:12.577Z,87.20
2019-01-30T08:55:41.848Z,87.50
2019-01-30T08:58:11.568Z,87.30
2019-01-30T09:00:40.829Z,87.40
2019-01-30T09:03:14.826Z,87.60
2019-01-30T09:05:40.713Z,87.20
2019-01-30T09:08:11.364Z,87.10
2019-01-30T09:10:43.473Z,86.10
2019-01-30T09:13:20.016Z,85.90
2019-01-30T09:15:49.705Z,85.30
2019-01-30T09:18:19.769Z,85.10
2019-01-30T09:20:48.960Z,84.70
2019-01-30T09:23:18.253Z,84.90
2019-01-30T09:25:47.223Z,84.80
2019-01-30T09:28:16.685Z,84.20
2019-01-30T09:30:45.828Z,84.30
2019-01-30T09:33:25.400Z,84.50
2019-01-30T09:35:45.980Z,84.20
2019-01-30T09:38:15.076Z,83.90
2019-01-30T09:40:44.260Z,83.60
2019-01-30T09:43:13.870Z,83.70
2019-01-30T09:45:43.091Z,83.00
2019-01-30T09:48:13.531Z,82.90
2019-01-30T09:50:42.514Z,83.30
2019-01-30T09:53:11.562Z,82.60
2019-01-30T09:55:41.831Z,82.60
2019-01-30T09:58:10.918Z,82.60
2019-01-30T10:00:40.077Z,82.80
2019-01-30T10:03:09.843Z,83.50
2019-01-30T10:05:39.244Z,82.90
2019-01-30T10:08:09.227Z,82.20
2019-01-30T10:10:40.000Z,82.30
2019-01-30T10:13:11.032Z,82.30
2019-01-30T10:15:43.441Z,81.80
2019-01-30T10:18:14.051Z,82.20
2019-01-30T10:20:45.187Z,82.20
2019-01-30T10:23:14.729Z,82.70
2019-01-30T10:25:44.503Z,81.40
2019-01-30T10:28:16.707Z,80.80
2019-01-30T10:30:45.941Z,79.00
2019-01-30T10:33:15.231Z,78.50
2019-01-30T10:35:44.296Z,78.10
2019-01-30T10:38:13.871Z,77.30
2019-01-30T10:40:44.717Z,77.60
2019-01-30T10:43:14.251Z,77.60
2019-01-30T10:45:43.687Z,78.20
2019-01-30T10:48:13.431Z,78.20
2019-01-30T10:50:42.771Z,78.00
2019-01-30T10:53:12.451Z,78.40
2019-01-30T10:55:43.944Z,78.10
2019-01-30T10:58:16.065Z,78.10
2019-01-30T11:00:48.149Z,78.40
2019-01-30T11:03:18.208Z,78.40
2019-01-30T11:05:48.011Z,78.40
2019-01-30T11:08:34.542Z,78.10
2019-01-30T11:11:08.130Z,78.30
2019-01-30T11:13:35.157Z,78.30
2019-01-30T11:16:04.330Z,78.60
2019-01-30T11:18:33.511Z,78.70
2019-01-30T11:21:02.704Z,78.40
2019-01-30T11:23:32.352Z,78.60
2019-01-30T11:26:01.623Z,78.60
2019-01-30T11:28:30.891Z,79.00
2019-01-30T11:31:00.710Z,78.80
2019-01-30T11:33:29.677Z,79.30
2019-01-30T11:35:58.665Z,79.50
2019-01-30T11:38:27.995Z,79.70
2019-01-30T11:40:56.939Z,79.50
2019-01-30T11:43:25.974Z,79.50
2019-01-30T11:45:55.135Z,80.00
2019-01-30T11:48:24.614Z,79.60
2019-01-30T11:50:53.588Z,79.30
2019-01-30T11:53:22.561Z,79.10
2019-01-30T11:55:52.072Z,79.30
2019-01-30T11:58:21.418Z,79.70
2019-01-30T12:01:09.440Z,79.10
2019-01-30T12:03:39.184Z,79.10
2019-01-30T12:06:11.299Z,79.20
2019-01-30T12:08:45.108Z,79.00
2019-01-30T12:11:14.390Z,78.80
2019-01-30T12:13:46.583Z,78.80
2019-01-30T12:16:16.482Z,78.80
2019-01-30T12:18:45.454Z,78.90
2019-01-30T12:21:14.816Z,79.60
2019-01-30T12:23:44.308Z,79.50
2019-01-30T12:26:14.379Z,79.70
2019-01-30T12:28:44.086Z,80.00
2019-01-30T12:31:13.286Z,80.30
2019-01-30T12:33:42.484Z,80.20
2019-01-30T12:36:12.101Z,80.70
2019-01-30T12:38:41.601Z,80.50
2019-01-30T12:41:10.897Z,80.60
2019-01-30T12:43:39.959Z,80.80
2019-01-30T12:46:09.701Z,80.70
2019-01-30T12:48:39.085Z,80.30
2019-01-30T12:51:08.279Z,80.20
2019-01-30T12:53:37.506Z,80.90
2019-01-30T12:56:06.677Z,81.60
2019-01-30T12:58:36.407Z,81.60
2019-01-30T13:01:05.909Z,81.60
2019-01-30T13:03:36.875Z,81.90
2019-01-30T13:06:12.093Z,81.90
2019-01-30T13:08:41.232Z,82.50
2019-01-30T13:11:12.003Z,82.10
2019-01-30T13:13:41.254Z,82.70
2019-01-30T13:16:10.872Z,82.60
2019-01-30T13:18:40.424Z,83.00
2019-01-30T13:21:09.598Z,83.00
2019-01-30T13:23:38.891Z,83.30
2019-01-30T13:26:08.836Z,83.70
2019-01-30T13:28:38.533Z,84.10
2019-01-30T13:31:07.699Z,84.30
2019-01-30T13:33:37.287Z,84.50
2019-01-30T13:36:06.760Z,84.50
2019-01-30T13:38:36.018Z,84.70
2019-01-30T13:41:05.221Z,84.90
2019-01-30T13:43:34.626Z,84.90
2019-01-30T13:46:05.409Z,85.30
2019-01-30T13:48:35.198Z,85.40
2019-01-30T13:51:04.338Z,85.20
2019-01-30T13:53:34.284Z,85.10
2019-01-30T13:56:03.501Z,85.30
2019-01-30T13:58:32.694Z,85.50
2019-01-30T14:01:02.511Z,85.70
2019-01-30T14:03:32.024Z,85.70
2019-01-30T14:06:01.205Z,85.70
2019-01-30T14:08:30.819Z,85.80
2019-01-30T14:11:00.009Z,86.10
2019-01-30T14:13:32.435Z,86.30
2019-01-30T14:16:03.035Z,86.30
2019-01-30T14:18:32.524Z,86.60
2019-01-30T14:21:02.512Z,87.00
2019-01-30T14:23:31.946Z,87.90
2019-01-30T14:26:01.303Z,88.00
2019-01-30T14:28:30.510Z,88.10
2019-01-30T14:30:59.859Z,88.20
2019-01-30T14:33:29.477Z,88.70
2019-01-30T14:35:58.689Z,89.50
2019-01-30T14:38:27.995Z,90.40
2019-01-30T14:40:57.755Z,91.20
2019-01-30T14:43:27.274Z,92.00
2019-01-30T14:45:56.865Z,92.80
2019-01-30T14:48:26.348Z,92.90
2019-01-30T14:50:55.645Z,93.00
2019-01-30T14:53:27.832Z,93.20
2019-01-30T14:55:57.146Z,93.20
2019-01-30T14:58:27.956Z,93.10
2019-01-30T15:00:57.066Z,93.30
2019-01-30T15:03:26.565Z,92.90
2019-01-30T15:06:04.785Z,93.20
2019-01-30T15:08:45.905Z,92.50
2019-01-30T15:11:15.709Z,92.20
2019-01-30T15:13:54.067Z,91.50
2019-01-30T15:16:23.460Z,92.10
2019-01-30T15:19:25.922Z,91.40
2019-01-30T15:22:01.719Z,91.40
2019-01-30T15:24:49.856Z,92.20
2019-01-30T15:27:38.246Z,92.10
2019-01-30T15:30:27.613Z,92.60
2019-01-30T15:33:15.992Z,92.90
2019-01-30T15:36:04.418Z,93.00
2019-01-30T15:41:46.141Z,93.60
2019-01-30T15:44:34.255Z,93.20
2019-01-30T15:47:34.406Z,93.70
2019-01-30T15:53:09.940Z,94.20
2019-01-30T15:55:50.890Z,94.40
2019-01-30T15:58:31.411Z,94.50
2019-01-30T16:01:12.372Z,94.50
2019-01-30T16:03:53.317Z,94.50
2019-01-30T16:06:33.827Z,95.00
2019-01-30T16:09:15.321Z,95.10
2019-01-30T16:11:46.063Z,95.30
2019-01-30T16:14:16.619Z,95.40
2019-01-30T16:16:45.753Z,95.70
2019-01-30T16:19:14.935Z,95.60
2019-01-30T16:21:44.080Z,95.60
2019-01-30T16:24:23.503Z,95.90
2019-01-30T16:26:52.680Z,96.00
2019-01-30T16:29:22.258Z,96.00
2019-01-30T16:31:51.336Z,96.10
2019-01-30T16:34:21.026Z,96.10
2019-01-30T16:36:51.435Z,96.20
2019-01-30T16:39:20.724Z,96.50
2019-01-30T16:41:52.381Z,96.20
2019-01-30T16:44:21.567Z,96.10
2019-01-30T16:46:51.727Z,96.10
2019-01-30T16:49:21.284Z,96.30
2019-01-30T16:51:50.832Z,96.30
2019-01-30T16:54:20.162Z,96.50
2019-01-30T16:56:50.068Z,96.60
2019-01-30T16:59:19.411Z,96.60
2019-01-30T17:01:50.203Z,96.60
2019-01-30T17:04:19.176Z,96.60
2019-01-30T17:06:50.807Z,96.60
2019-01-30T17:09:20.628Z,96.60
2019-01-30T17:11:50.153Z,96.60
2019-01-30T17:14:19.275Z,96.60
2019-01-30T17:16:48.426Z,96.60
2019-01-30T17:19:17.467Z,96.60
2019-01-30T17:21:46.534Z,96.60
2019-01-30T17:24:15.795Z,96.50
2019-01-30T17:26:45.062Z,96.10
2019-01-30T17:29:14.319Z,95.90
2019-01-30T17:31:43.365Z,95.40
2019-01-30T17:34:12.902Z,94.90
2019-01-30T17:36:41.976Z,94.80
2019-01-30T17:39:11.359Z,94.50
2019-01-30T17:41:40.932Z,94.40
2019-01-30T17:44:12.817Z,93.90
2019-01-30T17:46:41.370Z,93.90
2019-01-30T17:49:10.398Z,94.10
2019-01-30T17:51:42.988Z,94.50
2019-01-30T17:54:12.228Z,95.10
2019-01-30T17:56:41.434Z,95.50
2019-01-30T17:59:10.968Z,95.80
2019-01-30T18:01:40.322Z,96.20
2019-01-30T18:04:10.157Z,96.60
2019-01-30T18:06:39.513Z,96.60
2019-01-30T18:09:11.044Z,96.60
2019-01-30T18:11:40.371Z,96.60
2019-01-30T18:14:09.662Z,96.60
2019-01-30T18:16:38.864Z,96.60
2019-01-30T18:19:08.487Z,96.60
2019-01-30T18:21:37.694Z,96.60
2019-01-30T18:24:06.986Z,96.60
2019-01-30T18:26:37.933Z,96.60
2019-01-30T18:29:06.879Z,96.60
2019-01-30T18:31:35.960Z,96.60
2019-01-30T18:34:05.057Z,96.60
2019-01-30T18:36:41.242Z,96.60
2019-01-30T18:39:09.815Z,96.60
2019-01-30T18:41:38.992Z,96.60
2019-01-30T18:44:08.353Z,96.60
2019-01-30T18:46:37.653Z,96.60
2019-01-30T18:49:06.722Z,96.60
2019-01-30T18:51:36.705Z,96.60
2019-01-30T18:54:06.203Z,96.60
2019-01-30T18:56:39.640Z,96.60
2019-01-30T18:59:09.523Z,96.60
2019-01-30T19:01:39.136Z,96.60
2019-01-30T19:04:08.657Z,96.60
2019-01-30T19:06:37.989Z,96.60
2019-01-30T19:09:12.830Z,96.60
2019-01-30T19:11:43.969Z,96.60
2019-01-30T19:14:18.857Z,96.60
2019-01-30T19:16:48.657Z,96.60
2019-01-30T19:19:21.604Z,96.60
2019-01-30T19:22:10.504Z,96.60
2019-01-30T19:24:58.684Z,96.50
2019-01-30T19:27:46.899Z,95.90
2019-01-30T19:30:35.146Z,95.60
2019-01-30T19:33:23.293Z,95.70
2019-01-30T19:36:12.844Z,95.10
2019-01-30T19:39:00.880Z,94.70
2019-01-30T19:41:50.319Z,94.40
2019-01-30T19:44:39.082Z,93.60
2019-01-30T19:47:28.750Z,93.60
2019-01-30T19:50:18.108Z,93.30
2019-01-30T19:52:59.182Z,93.50
2019-01-30T19:58:24.171Z,93.50
2019-01-30T20:01:05.129Z,93.70
2019-01-30T20:03:46.433Z,93.30
2019-01-30T20:06:15.614Z,93.20
2019-01-30T20:09:24.733Z,92.60
2019-01-30T20:12:13.039Z,92.80
2019-01-30T20:15:01.083Z,92.10
2019-01-30T20:20:43.857Z,92.00
2019-01-30T20:23:31.863Z,91.00
2019-01-30T20:26:19.963Z,91.10
2019-01-30T20:29:08.066Z,91.00
2019-01-30T20:31:56.207Z,90.80
2019-01-30T20:34:44.359Z,91.40
2019-01-30T20:37:32.519Z,90.70
2019-01-30T20:40:21.748Z,90.40
2019-01-30T20:43:09.977Z,90.40
2019-01-30T20:45:58.884Z,91.40
2019-01-30T20:48:51.394Z,91.40
2019-01-30T20:51:36.782Z,91.30
2019-01-30T20:54:25.150Z,91.90
2019-01-30T20:57:13.441Z,90.80
2019-01-30T21:00:01.509Z,90.70
2019-01-30T21:02:50.250Z,91.20
2019-01-30T21:05:31.141Z,91.50
2019-01-30T21:08:12.298Z,91.50
2019-01-30T21:10:52.831Z,90.60
2019-01-30T21:13:33.289Z,89.80
2019-01-30T21:16:13.734Z,89.40
2019-01-30T21:18:54.407Z,89.10
2019-01-30T21:21:35.427Z,89.50
2019-01-30T21:26:58.638Z,88.90
2019-01-30T21:29:40.531Z,89.00
2019-01-30T21:32:21.447Z,88.60
2019-01-30T21:35:02.029Z,89.50
2019-01-30T21:37:49.090Z,88.90
2019-01-30T21:40:26.180Z,89.80
2019-01-30T21:43:06.773Z,88.80
2019-01-30T21:45:47.754Z,88.80
2019-01-30T21:48:28.323Z,88.30
2019-01-30T21:51:09.411Z,88.40
2019-01-30T21:53:49.974Z,88.90
2019-01-30T21:56:31.043Z,88.40
2019-01-30T21:59:11.792Z,88.80
2019-01-30T22:01:52.277Z,88.70
2019-01-30T22:04:33.046Z,88.50
2019-01-30T22:07:13.844Z,88.80
2019-01-30T22:09:55.326Z,88.70
2019-01-30T22:12:36.424Z,88.90
2019-01-30T22:15:16.931Z,89.10
2019-01-30T22:17:57.714Z,89.00
2019-01-30T22:20:39.165Z,89.80
2019-01-30T22:23:20.403Z,89.60
2019-01-30T22:26:01.280Z,89.40
2019-01-30T22:28:41.986Z,89.60
2019-01-30T22:31:22.931Z,89.80
2019-01-30T22:34:03.961Z,90.10
2019-01-30T22:36:44.783Z,90.30
2019-01-30T22:39:28.568Z,91.00
2019-01-30T22:42:10.002Z,91.40
2019-01-30T22:44:50.485Z,91.90
2019-01-30T22:47:31.093Z,92.10
2019-01-30T22:50:12.011Z,92.30
2019-01-30T22:52:56.384Z,92.40
2019-01-30T22:58:20.235Z,92.30
2019-01-30T23:01:04.590Z,92.30
2019-01-30T23:03:45.234Z,92.70
2019-01-30T23:06:26.162Z,92.90
2019-01-30T23:09:06.898Z,93.10
2019-01-30T23:14:29.801Z,93.80
2019-01-30T23:17:11.816Z,93.80
2019-01-30T23:19:52.741Z,93.80
2019-01-30T23:22:33.987Z,93.60
2019-01-30T23:27:57.343Z,94.50
2019-01-30T23:30:38.332Z,94.80
2019-01-30T23:33:19.835Z,95.10
2019-01-30T23:36:01.140Z,95.30
2019-01-30T23:38:41.897Z,95.00
2019-01-30T23:41:23.228Z,94.90
2019-01-30T23:44:03.782Z,95.00
2019-01-30T23:46:45.013Z,95.10
2019-01-30T23:49:25.907Z,95.10
2019-01-30T23:52:06.615Z,95.10
2019-01-30T23:54:48.651Z,95.10
2019-01-30T23:57:29.339Z,95.00
